Terminal Aerodrome Forecast
Issued by NWS Shreveport, LA

Current Version | Previous Version | Text Only | Print | Product List | Glossary On
Versions: 1 2 3 4 5 6 7 8 9 10 11 12 13 14 15 16
000
FTUS44 KSHV 281700
TAFMLU
TAF
KMLU 281738Z 2818/2918 02007KT P6SM -RA SCT006 OVC015
      TEMPO 2818/2821 BKN006
     FM290000 06003KT P6SM OVC015
     FM290300 03003KT 4SM BR OVC007
     FM290800 02003KT 4SM BR OVC005=

USA.gov is the U.S. government's official web portal to all federal, state and local government web resources and services.